Time;durP1;ratioP1;P1;durP2;ratioP2;P2;SDS_P1;SDS_P2;PMS_P1;PMS_P2;Temp;Humidity;BMP_temperature;BMP_pressure;BME280_temperature;BME280_humidity;BME280_pressure;Samples;Min_cycle;Max_cycle;Signal;HPM_P1;HPM_P2
2021/09/10 00:01:03;;;;;;;15.70;7.50;;;;;;;15.39;52.06;98616.22;4966042;28;20476;-67
2021/09/10 00:03:28;;;;;;;11.85;7.15;;;;;;;15.38;52.05;98622.06;4966922;28;20474;-68
2021/09/10 00:05:53;;;;;;;15.45;8.30;;;;;;;15.37;51.71;98623.22;4966458;28;20035;-69
2021/09/10 00:08:19;;;;;;;13.05;8.02;;;;;;;15.37;52.14;98621.25;4965502;28;20030;-69
2021/09/10 00:10:44;;;;;;;10.73;7.38;;;;;;;15.36;51.85;98618.81;4963940;28;20024;-69
2021/09/10 00:13:09;;;;;;;13.30;7.30;;;;;;;15.35;52.15;98625.50;4965104;28;20026;-69
2021/09/10 00:15:35;;;;;;;13.90;7.38;;;;;;;15.32;52.27;98622.22;4963989;28;20033;-69
2021/09/10 00:18:00;;;;;;;13.43;7.22;;;;;;;15.30;51.98;98624.50;4965813;28;20071;-69
2021/09/10 00:20:26;;;;;;;14.77;8.20;;;;;;;15.23;51.90;98626.13;4965431;28;20538;-69
2021/09/10 00:22:51;;;;;;;12.73;7.55;;;;;;;15.17;52.24;98626.28;4967486;28;20030;-68
2021/09/10 00:25:17;;;;;;;11.07;7.13;;;;;;;15.10;52.28;98627.88;4966903;28;20035;-69
2021/09/10 00:27:43;;;;;;;12.55;8.30;;;;;;;15.02;52.45;98622.03;4966807;28;20550;-69
2021/09/10 00:30:08;;;;;;;13.20;8.20;;;;;;;14.95;52.50;98623.63;4961481;28;20039;-68
2021/09/10 00:32:35;;;;;;;15.65;9.60;;;;;;;14.92;52.87;98633.38;4961553;28;20050;-69
2021/09/10 00:35:00;;;;;;;15.38;8.27;;;;;;;14.85;52.39;98630.28;4968243;28;20073;-68
2021/09/10 00:37:25;;;;;;;20.63;10.38;;;;;;;14.84;52.99;98628.63;4967274;28;20138;-70
2021/09/10 00:39:51;;;;;;;25.02;11.68;;;;;;;14.79;52.74;98634.31;4965038;28;20110;-70
2021/09/10 00:42:16;;;;;;;16.98;8.90;;;;;;;14.79;53.24;98629.59;4963208;28;20022;-68
2021/09/10 00:44:42;;;;;;;22.50;10.85;;;;;;;14.83;53.24;98632.53;4960985;28;20024;-68
2021/09/10 00:47:08;;;;;;;19.58;10.02;;;;;;;14.84;53.07;98623.94;4966939;28;20094;-68
2021/09/10 00:49:34;;;;;;;17.95;9.15;;;;;;;14.88;53.46;98627.66;4969315;28;20055;-67
2021/09/10 00:51:59;;;;;;;14.63;7.93;;;;;;;14.91;53.29;98625.41;4966286;28;20496;-68
2021/09/10 00:54:25;;;;;;;13.10;7.75;;;;;;;14.92;53.29;98633.38;4971261;28;20027;-68
2021/09/10 00:56:50;;;;;;;15.55;8.25;;;;;;;14.93;53.49;98631.41;4971115;28;20035;-68
2021/09/10 00:59:16;;;;;;;15.20;8.70;;;;;;;14.94;53.55;98624.75;4966853;28;20100;-68
2021/09/10 01:01:42;;;;;;;19.30;8.50;;;;;;;14.92;53.00;98622.34;4967480;28;20027;-68
2021/09/10 01:04:08;;;;;;;14.98;9.00;;;;;;;14.94;53.60;98627.53;4966567;28;20383;-69
2021/09/10 01:06:35;;;;;;;14.10;8.50;;;;;;;14.92;53.43;98632.56;4966884;28;20152;-68
2021/09/10 01:09:01;;;;;;;15.70;9.25;;;;;;;14.91;53.24;98629.00;4966074;28;20039;-68
2021/09/10 01:11:27;;;;;;;17.40;10.23;;;;;;;14.88;53.67;98630.44;4978284;28;20024;-68
2021/09/10 01:13:54;;;;;;;17.30;9.43;;;;;;;14.87;53.51;98634.34;4969722;28;20097;-68
2021/09/10 01:16:20;;;;;;;16.55;9.57;;;;;;;14.85;53.10;98639.38;4970578;28;20027;-68
2021/09/10 01:18:46;;;;;;;20.25;10.43;;;;;;;14.83;53.42;98633.38;4970360;28;20042;-68
2021/09/10 01:21:11;;;;;;;16.10;8.90;;;;;;;14.81;53.35;98635.63;4977681;28;20126;-66
2021/09/10 01:23:37;;;;;;;14.85;9.20;;;;;;;14.81;53.60;98634.81;4966718;28;20026;-69
2021/09/10 01:26:02;;;;;;;31.52;15.88;;;;;;;14.74;53.58;98636.06;4971694;28;20093;-69
2021/09/10 01:28:28;;;;;;;21.92;10.95;;;;;;;14.69;53.92;98636.22;4970910;28;20443;-69
2021/09/10 01:30:54;;;;;;;22.15;11.38;;;;;;;14.62;53.90;98632.28;4969953;28;20015;-69
2021/09/10 01:33:20;;;;;;;21.85;11.23;;;;;;;14.56;53.88;98635.16;4967181;28;20047;-69
2021/09/10 01:35:45;;;;;;;19.75;11.00;;;;;;;14.54;54.00;98640.19;4965723;28;20026;-68
2021/09/10 01:38:11;;;;;;;18.45;9.90;;;;;;;14.52;53.97;98633.38;4963712;28;20038;-69
2021/09/10 01:40:38;;;;;;;19.80;11.00;;;;;;;14.49;53.94;98634.00;4962536;28;20027;-69
2021/09/10 01:43:05;;;;;;;18.27;9.77;;;;;;;14.49;54.04;98632.03;4967540;28;20534;-68
2021/09/10 01:45:31;;;;;;;19.10;9.68;;;;;;;14.49;54.28;98636.75;4968642;28;20062;-68
2021/09/10 01:47:57;;;;;;;20.65;8.70;;;;;;;14.48;53.96;98635.94;4968877;28;20460;-68
2021/09/10 01:50:25;;;;;;;14.80;7.70;;;;;;;14.47;54.24;98639.81;4963969;28;20027;-68
2021/09/10 01:52:50;;;;;;;17.33;8.90;;;;;;;14.44;54.19;98643.25;4963372;28;20028;-67
2021/09/10 01:55:16;;;;;;;13.35;8.50;;;;;;;14.42;54.28;98646.31;4968427;28;20033;-68
2021/09/10 01:57:47;;;;;;;15.32;8.25;;;;;;;14.40;54.33;98645.00;4965537;28;20114;-68
2021/09/10 02:00:14;;;;;;;17.05;9.32;;;;;;;14.31;54.25;98636.66;4963956;28;20078;-68
2021/09/10 02:02:40;;;;;;;17.90;9.55;;;;;;;14.30;54.72;98637.81;4968829;28;20034;-67
2021/09/10 02:05:09;;;;;;;14.40;8.65;;;;;;;14.29;54.43;98633.41;4969056;28;20023;-68
2021/09/10 02:07:35;;;;;;;14.63;9.05;;;;;;;14.32;54.56;98630.03;4969524;28;20029;-67
2021/09/10 02:10:04;;;;;;;16.45;8.43;;;;;;;14.31;54.41;98631.16;4960591;28;20489;-68
2021/09/10 02:12:29;;;;;;;19.95;8.60;;;;;;;14.26;54.49;98632.13;4964280;28;20025;-67
2021/09/10 02:14:55;;;;;;;14.07;7.72;;;;;;;14.25;54.56;98629.69;4962250;28;20023;-68
2021/09/10 02:17:20;;;;;;;14.65;8.30;;;;;;;14.21;54.89;98631.44;4965680;28;20054;-68
2021/09/10 02:19:46;;;;;;;15.20;7.88;;;;;;;14.23;54.81;98631.94;4967480;28;20066;-68
2021/09/10 02:22:11;;;;;;;14.00;6.82;;;;;;;14.23;54.94;98631.94;4965135;28;20034;-68
2021/09/10 02:24:37;;;;;;;11.25;6.88;;;;;;;14.18;54.78;98632.06;4968415;28;20526;-69
2021/09/10 02:27:03;;;;;;;11.73;6.75;;;;;;;14.17;54.72;98636.75;4967316;28;20077;-68
2021/09/10 02:29:28;;;;;;;13.45;7.10;;;;;;;14.15;54.69;98639.03;4963682;28;20026;-68
2021/09/10 02:31:53;;;;;;;14.60;7.57;;;;;;;14.08;55.05;98633.13;4961490;28;20034;-68
2021/09/10 02:34:19;;;;;;;16.92;7.30;;;;;;;14.05;54.99;98631.03;4965360;28;20042;-68
2021/09/10 02:36:45;;;;;;;12.57;7.18;;;;;;;14.05;54.98;98642.06;4968667;28;20463;-68
2021/09/10 02:39:11;;;;;;;10.52;6.80;;;;;;;14.02;55.08;98637.19;4968138;28;20039;-67
2021/09/10 02:41:38;;;;;;;10.10;6.47;;;;;;;14.01;55.04;98633.59;4968289;28;20121;-68
2021/09/10 02:44:04;;;;;;;12.50;6.90;;;;;;;13.99;55.00;98638.59;4969787;28;20026;-68
2021/09/10 02:46:30;;;;;;;13.95;7.28;;;;;;;13.98;55.17;98639.72;4966392;28;20101;-69
2021/09/10 02:48:56;;;;;;;13.50;6.40;;;;;;;13.99;55.18;98622.88;4966684;28;20081;-69
2021/09/10 02:51:21;;;;;;;10.00;6.50;;;;;;;13.98;55.12;98636.97;4961898;28;20031;-68
2021/09/10 02:53:47;;;;;;;12.75;6.75;;;;;;;13.96;55.47;98631.78;4966760;28;20027;-68
2021/09/10 02:56:12;;;;;;;12.70;7.28;;;;;;;13.96;55.26;98628.19;4967470;28;20038;-68
2021/09/10 02:58:38;;;;;;;13.52;7.05;;;;;;;13.96;55.12;98631.78;4967707;28;20082;-68
2021/09/10 03:01:03;;;;;;;11.63;6.28;;;;;;;13.94;55.42;98634.03;4965026;28;20027;-68
2021/09/10 03:03:29;;;;;;;9.93;6.43;;;;;;;13.93;55.42;98635.19;4965934;28;20546;-69
2021/09/10 03:05:55;;;;;;;9.90;6.00;;;;;;;13.95;55.37;98629.31;4962926;28;20503;-68
2021/09/10 03:08:21;;;;;;;9.73;5.93;;;;;;;13.94;55.28;98627.69;4959859;28;20027;-68
2021/09/10 03:10:47;;;;;;;12.02;5.60;;;;;;;13.96;55.32;98617.16;4963783;28;20019;-68
2021/09/10 03:13:12;;;;;;;11.32;6.50;;;;;;;13.98;55.33;98624.03;4966226;28;20031;-68
2021/09/10 03:15:38;;;;;;;11.77;6.47;;;;;;;13.99;55.42;98622.06;4965190;28;20456;-69
2021/09/10 03:18:03;;;;;;;9.00;6.72;;;;;;;14.01;55.35;98628.06;4964227;28;20074;-69
2021/09/10 03:20:29;;;;;;;12.95;6.45;;;;;;;13.98;55.20;98629.53;4966304;28;20031;-68
2021/09/10 03:22:55;;;;;;;8.50;6.03;;;;;;;14.02;55.37;98628.91;4965735;28;20027;-69
2021/09/10 03:25:20;;;;;;;11.38;5.72;;;;;;;14.04;55.12;98630.22;4979868;28;20447;-69
2021/09/10 03:27:45;;;;;;;14.07;6.50;;;;;;;14.03;55.34;98625.03;4964602;28;20039;-68
2021/09/10 03:30:11;;;;;;;12.85;6.43;;;;;;;14.04;55.27;98626.66;4966450;28;20059;-69
2021/09/10 03:32:37;;;;;;;10.02;6.28;;;;;;;14.07;55.13;98628.75;4966364;28;20443;-69
2021/09/10 03:35:03;;;;;;;13.88;7.03;;;;;;;14.10;55.38;98611.56;4967232;28;20022;-68
2021/09/10 03:37:28;;;;;;;14.18;6.90;;;;;;;14.07;54.93;98624.06;4966805;28;20070;-69
2021/09/10 03:39:54;;;;;;;13.02;7.97;;;;;;;14.03;55.22;98616.75;4962408;28;20078;-68
2021/09/10 03:42:19;;;;;;;15.88;9.05;;;;;;;14.01;54.84;98616.25;4964357;28;20030;-69
2021/09/10 03:44:45;;;;;;;18.73;9.30;;;;;;;13.99;54.95;98613.78;4969211;28;20460;-69
2021/09/10 03:47:10;;;;;;;19.65;8.73;;;;;;;13.98;55.04;98615.75;4965776;28;20787;-69
2021/09/10 03:49:37;;;;;;;15.40;8.40;;;;;;;13.97;55.05;98613.28;4966472;28;20442;-68
2021/09/10 03:52:04;;;;;;;15.00;7.47;;;;;;;13.99;54.97;98611.84;4964852;28;20062;-69
2021/09/10 03:54:30;;;;;;;13.95;7.15;;;;;;;14.01;55.08;98613.50;4966872;28;20121;-69
2021/09/10 03:56:55;;;;;;;13.07;7.80;;;;;;;14.02;54.89;98613.16;4971432;28;20102;-69
2021/09/10 03:59:20;;;;;;;16.40;8.50;;;;;;;14.02;55.12;98599.38;4971011;28;20041;-69
2021/09/10 04:01:46;;;;;;;20.80;8.50;;;;;;;14.05;55.20;98608.97;4986241;28;20047;-69
2021/09/10 04:04:11;;;;;;;14.00;8.10;;;;;;;14.01;54.96;98605.22;4971458;28;20042;-69
2021/09/10 04:06:36;;;;;;;13.95;6.70;;;;;;;13.91;55.15;98609.84;4971471;28;20022;-69
2021/09/10 04:09:02;;;;;;;14.48;6.80;;;;;;;13.81;54.90;98618.38;4971717;28;20019;-69
2021/09/10 04:11:28;;;;;;;15.40;8.20;;;;;;;13.80;55.10;98614.81;4971145;28;20026;-69
2021/09/10 04:13:54;;;;;;;18.83;9.20;;;;;;;13.81;55.02;98616.44;4971222;28;20042;-69
2021/09/10 04:16:19;;;;;;;12.32;7.43;;;;;;;13.82;55.26;98623.59;4971438;28;20094;-69
2021/09/10 04:18:45;;;;;;;19.23;9.73;;;;;;;13.79;55.10;98615.13;4973205;28;20039;-69
2021/09/10 04:21:10;;;;;;;17.10;8.05;;;;;;;13.78;55.17;98616.25;4974983;28;20137;-69
2021/09/10 04:23:35;;;;;;;18.85;8.60;;;;;;;13.75;55.44;98617.69;4971685;28;20027;-68
2021/09/10 04:26:01;;;;;;;17.77;9.02;;;;;;;13.77;55.25;98620.97;4974904;28;20038;-68
2021/09/10 04:28:26;;;;;;;34.75;14.30;;;;;;;13.78;55.23;98621.75;4973415;28;20027;-68
2021/09/10 04:30:52;;;;;;;15.65;8.40;;;;;;;13.80;55.23;98614.81;4973277;28;20027;-69
2021/09/10 04:33:17;;;;;;;21.77;8.65;;;;;;;13.82;55.39;98618.09;4975825;28;20074;-69
2021/09/10 04:35:43;;;;;;;19.13;8.73;;;;;;;13.88;55.37;98623.44;4975233;28;20027;-68
2021/09/10 04:38:08;;;;;;;21.27;8.93;;;;;;;13.90;55.26;98619.25;4976372;28;20042;-68
2021/09/10 04:40:33;;;;;;;15.63;8.15;;;;;;;13.92;55.22;98622.50;4974964;28;20039;-69
2021/09/10 04:42:59;;;;;;;19.13;9.23;;;;;;;13.94;55.20;98617.50;4975485;28;20039;-69
2021/09/10 04:45:24;;;;;;;14.60;8.35;;;;;;;13.94;55.09;98627.69;4975919;28;20034;-68
2021/09/10 04:47:49;;;;;;;12.57;7.38;;;;;;;13.94;55.12;98616.66;4974787;28;20082;-69
2021/09/10 04:50:15;;;;;;;13.05;7.60;;;;;;;13.91;55.30;98629.16;4975723;28;20062;-69
2021/09/10 04:52:41;;;;;;;14.20;7.55;;;;;;;13.85;55.02;98638.69;4975626;28;20042;-68
2021/09/10 04:55:09;;;;;;;18.35;8.68;;;;;;;13.77;55.12;98637.50;4975194;28;20562;-70
2021/09/10 04:57:35;;;;;;;16.17;8.88;;;;;;;13.73;55.26;98636.50;4975501;28;20031;-68
2021/09/10 05:00:00;;;;;;;19.15;9.90;;;;;;;13.72;55.22;98634.03;4974521;28;20034;-68
2021/09/10 05:02:26;;;;;;;19.63;9.95;;;;;;;13.70;55.60;98639.88;4975088;28;20093;-67
2021/09/10 05:04:51;;;;;;;19.40;9.60;;;;;;;13.69;55.45;98641.78;4972204;28;20364;-68
2021/09/10 05:07:17;;;;;;;23.92;10.45;;;;;;;13.69;55.63;98639.03;4971707;28;20081;-68
2021/09/10 05:09:42;;;;;;;21.90;10.52;;;;;;;13.70;56.15;98634.34;4974136;28;20069;-68
2021/09/10 05:12:07;;;;;;;17.25;9.82;;;;;;;13.69;55.41;98641.78;4974606;28;20029;-67
2021/09/10 05:14:33;;;;;;;16.67;9.32;;;;;;;13.71;55.79;98638.75;4971684;28;20110;-68
2021/09/10 05:16:58;;;;;;;18.55;8.90;;;;;;;13.73;56.14;98636.50;4974853;28;20050;-68
2021/09/10 05:19:24;;;;;;;13.75;8.40;;;;;;;13.74;55.80;98645.56;4974905;28;20057;-68
2021/09/10 05:21:50;;;;;;;15.65;8.82;;;;;;;13.74;56.04;98645.56;4974929;28;20058;-68
2021/09/10 05:24:15;;;;;;;13.10;8.25;;;;;;;13.75;56.29;98638.91;4973144;28;20035;-68
2021/09/10 05:26:42;;;;;;;13.95;8.10;;;;;;;13.77;56.23;98640.25;4973197;28;20035;-68
2021/09/10 05:29:07;;;;;;;13.40;8.55;;;;;;;13.81;56.34;98634.91;4974483;28;20062;-68
2021/09/10 05:31:33;;;;;;;12.13;7.03;;;;;;;13.83;56.26;98632.66;4973473;28;20067;-68
2021/09/10 05:33:58;;;;;;;13.80;6.78;;;;;;;13.87;56.35;98641.94;4971334;28;20035;-67
2021/09/10 05:36:24;;;;;;;15.50;7.32;;;;;;;13.90;56.49;98638.56;4975162;28;20030;-68
2021/09/10 05:38:49;;;;;;;10.73;6.85;;;;;;;13.97;56.40;98640.84;4975060;28;20037;-68
2021/09/10 05:41:14;;;;;;;14.27;7.18;;;;;;;14.02;56.47;98645.44;4971944;28;20023;-67
2021/09/10 05:43:40;;;;;;;13.02;6.63;;;;;;;14.10;56.36;98641.91;4974582;28;20023;-67
2021/09/10 05:46:05;;;;;;;14.57;8.40;;;;;;;14.17;56.41;98641.47;4972471;28;20086;-68
2021/09/10 05:48:31;;;;;;;10.35;6.50;;;;;;;14.21;56.46;98642.47;4973860;28;20248;-67
2021/09/10 05:50:56;;;;;;;11.30;6.32;;;;;;;14.27;56.58;98643.94;4973139;28;20023;-67
2021/09/10 05:53:22;;;;;;;11.85;6.53;;;;;;;14.35;56.30;98642.38;4974666;28;20442;-68
2021/09/10 05:55:47;;;;;;;10.63;5.80;;;;;;;14.43;56.33;98641.63;4972971;28;20055;-68
2021/09/10 05:58:12;;;;;;;12.90;6.20;;;;;;;14.52;56.40;98649.94;4974470;28;20495;-68
2021/09/10 06:00:38;;;;;;;13.20;5.63;;;;;;;14.63;56.59;98655.97;4972862;28;20540;-67
2021/09/10 06:03:06;;;;;;;13.38;6.35;;;;;;;14.72;56.27;98656.88;4973519;28;20022;-67
2021/09/10 06:05:32;;;;;;;12.82;6.00;;;;;;;14.79;56.30;98650.88;4973290;28;20437;-68
2021/09/10 06:07:57;;;;;;;11.55;6.28;;;;;;;14.86;56.55;98653.97;4974730;28;20026;-68
2021/09/10 06:10:23;;;;;;;10.95;5.18;;;;;;;14.94;56.31;98658.72;4973592;28;20117;-66
2021/09/10 06:12:48;;;;;;;11.25;6.10;;;;;;;15.02;56.15;98655.19;4966988;28;21634;-67
2021/09/10 06:15:14;;;;;;;9.85;6.00;;;;;;;15.10;56.20;98655.50;4972361;28;20039;-67
2021/09/10 06:17:40;;;;;;;10.32;5.25;;;;;;;15.18;55.92;98661.06;4971732;28;20038;-68
2021/09/10 06:20:06;;;;;;;11.40;6.18;;;;;;;15.27;56.05;98663.03;4971232;28;20026;-68
2021/09/10 06:22:32;;;;;;;9.38;5.70;;;;;;;15.33;55.68;98659.78;4970365;28;20033;-68
2021/09/10 06:24:58;;;;;;;11.07;5.68;;;;;;;15.40;55.58;98664.03;4973163;28;20027;-67
2021/09/10 06:27:24;;;;;;;11.93;5.95;;;;;;;15.46;55.63;98659.97;4973832;28;20479;-68
2021/09/10 06:29:49;;;;;;;10.73;5.80;;;;;;;15.54;55.82;98658.34;4971687;28;20033;-66
2021/09/10 06:32:15;;;;;;;8.60;5.60;;;;;;;15.61;55.39;98655.91;4972588;28;20042;-67
2021/09/10 06:34:40;;;;;;;11.18;6.25;;;;;;;15.66;55.21;98663.22;4973158;28;20054;-68
2021/09/10 06:37:05;;;;;;;9.88;5.50;;;;;;;15.71;55.48;98663.84;4973602;28;20109;-67
2021/09/10 06:39:31;;;;;;;11.70;5.80;;;;;;;15.76;55.29;98663.69;4973143;28;20033;-68
2021/09/10 06:41:57;;;;;;;9.93;5.70;;;;;;;15.83;55.25;98671.53;4971926;28;20504;-67
2021/09/10 06:44:23;;;;;;;13.57;6.55;;;;;;;15.90;55.38;98671.84;4973719;28;20061;-67
2021/09/10 06:46:48;;;;;;;11.02;6.05;;;;;;;15.97;55.16;98662.25;4987241;28;20049;-68
2021/09/10 06:49:15;;;;;;;9.50;5.40;;;;;;;16.04;55.26;98670.88;4973330;28;20059;-68
2021/09/10 06:51:41;;;;;;;11.27;6.28;;;;;;;16.13;54.85;98674.44;4973204;28;20037;-68
2021/09/10 06:54:06;;;;;;;14.40;5.55;;;;;;;16.19;54.99;98672.31;4972990;28;20443;-67
2021/09/10 06:56:32;;;;;;;11.63;5.60;;;;;;;16.28;54.71;98670.34;4972911;28;20042;-66
2021/09/10 06:58:57;;;;;;;19.20;6.10;;;;;;;16.39;54.90;98675.53;4972887;28;20756;-66
2021/09/10 07:01:22;;;;;;;13.07;5.85;;;;;;;16.47;55.03;98683.81;4972640;28;20034;-68
2021/09/10 07:03:48;;;;;;;7.85;5.20;;;;;;;16.56;55.07;98683.75;4972232;28;20114;-68
2021/09/10 07:06:13;;;;;;;10.75;6.18;;;;;;;16.65;54.77;98679.00;4972330;28;20538;-68
2021/09/10 07:08:39;;;;;;;11.27;5.90;;;;;;;16.76;54.74;98689.72;4969699;28;20399;-66
2021/09/10 07:11:04;;;;;;;16.75;5.88;;;;;;;16.86;54.91;98683.84;4971290;28;20060;-67
2021/09/10 07:13:30;;;;;;;9.63;5.55;;;;;;;16.94;54.59;98685.72;4972041;28;20460;-67
2021/09/10 07:15:55;;;;;;;12.35;5.68;;;;;;;17.04;54.65;98686.53;4971079;28;20035;-67
2021/09/10 07:18:21;;;;;;;9.50;5.50;;;;;;;17.14;54.40;98685.34;4972802;28;20031;-66
2021/09/10 07:20:47;;;;;;;11.05;5.68;;;;;;;17.23;54.36;98681.38;4972261;28;20031;-69
2021/09/10 07:23:13;;;;;;;15.07;6.00;;;;;;;17.32;54.24;98692.41;4972243;28;20483;-69
2021/09/10 07:25:39;;;;;;;13.30;6.65;;;;;;;17.41;54.12;98684.03;4972321;28;20034;-68
2021/09/10 07:28:05;;;;;;;13.02;5.68;;;;;;;17.52;54.31;98685.25;4972727;28;20042;-67
2021/09/10 07:30:30;;;;;;;8.73;5.53;;;;;;;17.61;54.09;98676.06;4971344;28;20113;-68
2021/09/10 07:32:56;;;;;;;9.82;5.90;;;;;;;17.70;53.65;98685.94;4968314;28;20182;-68
2021/09/10 07:35:21;;;;;;;10.90;5.53;;;;;;;17.81;53.96;98680.00;4972033;28;20045;-68
2021/09/10 07:37:48;;;;;;;10.60;5.10;;;;;;;17.91;53.72;98685.13;4972326;28;20510;-71
2021/09/10 07:40:15;;;;;;;12.80;5.25;;;;;;;18.02;53.66;98690.28;4972318;28;20552;-68
2021/09/10 07:42:41;;;;;;;11.10;5.78;;;;;;;18.10;53.48;98683.84;4971372;28;20022;-71
2021/09/10 07:45:07;;;;;;;11.75;5.25;;;;;;;18.21;53.72;98692.53;4971692;28;20380;-68
2021/09/10 07:47:32;;;;;;;11.18;5.15;;;;;;;18.28;53.26;98696.41;4971164;28;20065;-69
2021/09/10 07:49:58;;;;;;;12.60;4.90;;;;;;;18.37;53.09;98696.31;4970120;28;20440;-70
2021/09/10 07:52:23;;;;;;;10.77;5.15;;;;;;;18.44;52.95;98696.56;4970603;28;20030;-72
2021/09/10 07:54:49;;;;;;;12.13;5.63;;;;;;;18.54;53.07;98694.50;4971766;28;21136;-71
2021/09/10 07:57:14;;;;;;;14.73;5.13;;;;;;;18.62;52.85;98704.69;4971082;28;20446;-71
2021/09/10 07:59:39;;;;;;;9.10;5.50;;;;;;;18.68;52.12;98702.53;4971719;28;20113;-70
2021/09/10 08:02:05;;;;;;;8.88;4.88;;;;;;;18.77;52.10;98705.97;4971671;28;20065;-70
2021/09/10 08:04:30;;;;;;;6.78;4.35;;;;;;;18.85;52.09;98704.28;4971679;28;20035;-71
2021/09/10 08:06:56;;;;;;;8.68;4.32;;;;;;;18.90;51.71;98696.50;4972233;28;20456;-72
2021/09/10 08:09:21;;;;;;;7.85;4.75;;;;;;;18.97;51.56;98695.97;4972322;28;20034;-72
2021/09/10 08:11:46;;;;;;;8.73;4.90;;;;;;;19.05;51.06;98697.03;4972174;28;20128;-70
2021/09/10 08:14:12;;;;;;;7.88;4.25;;;;;;;19.16;51.14;98705.69;4971887;28;20419;-70
2021/09/10 08:16:37;;;;;;;6.68;3.80;;;;;;;19.24;50.65;98699.22;4972070;28;20139;-71
2021/09/10 08:19:05;;;;;;;10.43;4.28;;;;;;;19.33;50.60;98699.09;4970586;28;20035;-71
2021/09/10 08:21:31;;;;;;;10.93;4.22;;;;;;;19.43;50.44;98700.56;4969501;28;20038;-73
2021/09/10 08:23:58;;;;;;;10.60;4.32;;;;;;;19.51;49.83;98694.06;4960636;28;20031;-72
2021/09/10 08:26:23;;;;;;;8.27;4.05;;;;;;;19.59;49.95;98693.13;4968728;28;20498;-72
2021/09/10 08:28:48;;;;;;;12.43;4.53;;;;;;;19.69;49.97;98696.59;4964285;28;20030;-71
2021/09/10 08:31:14;;;;;;;7.68;3.90;;;;;;;19.78;48.20;98689.72;4971262;28;20049;-71
2021/09/10 08:33:39;;;;;;;7.18;3.53;;;;;;;19.87;47.69;98686.78;4971364;28;20042;-70
2021/09/10 08:36:05;;;;;;;6.47;3.58;;;;;;;19.93;47.12;98690.97;4970509;28;20089;-70
2021/09/10 08:38:32;;;;;;;5.20;3.15;;;;;;;20.01;46.80;98688.41;4970478;28;20041;-71
2021/09/10 08:40:58;;;;;;;6.15;4.03;;;;;;;20.08;47.08;98696.97;4969764;28;20023;-71
2021/09/10 08:43:26;;;;;;;11.20;3.70;;;;;;;20.17;46.74;98699.59;4971393;28;20482;-71
2021/09/10 08:45:51;;;;;;;6.53;3.97;;;;;;;20.27;46.23;98695.47;4970239;28;20065;-72
2021/09/10 08:48:18;;;;;;;6.13;3.70;;;;;;;20.35;45.66;98686.16;4969634;28;20054;-70
2021/09/10 08:50:45;;;;;;;12.02;3.58;;;;;;;20.44;44.84;98703.53;4969689;28;20027;-71
2021/09/10 08:53:11;;;;;;;8.93;3.45;;;;;;;20.50;44.59;98699.31;4971990;28;20054;-71
2021/09/10 08:55:37;;;;;;;8.52;3.65;;;;;;;20.57;44.77;98697.88;4970774;28;20062;-72
2021/09/10 08:58:02;;;;;;;8.52;3.85;;;;;;;20.62;44.48;98698.44;4972055;28;20134;-71
2021/09/10 09:00:37;;;;;;;5.00;2.95;;;;;;;20.70;44.31;98704.19;4971981;28;20030;-72
2021/09/10 09:03:08;;;;;;;7.53;3.70;;;;;;;20.75;44.73;98698.34;4972155;28;20460;-71
2021/09/10 09:05:35;;;;;;;9.15;3.65;;;;;;;20.80;44.40;98704.50;4973317;28;20023;-70
2021/09/10 09:08:07;;;;;;;7.20;3.30;;;;;;;20.86;43.98;98693.88;4975422;28;20531;-72
2021/09/10 09:11:11;;;;;;;7.28;3.50;;;;;;;20.97;43.66;98696.94;4975380;28;20029;-72
2021/09/10 09:13:42;;;;;;;6.38;3.20;;;;;;;21.01;43.22;98686.66;4953941;29;20063;-72
2021/09/10 09:16:23;;;;;;;4.53;2.97;;;;;;;21.09;42.36;98696.81;4972041;28;20041;-71
2021/09/10 09:18:52;;;;;;;6.93;3.08;;;;;;;21.16;42.63;98685.06;4973432;28;20074;-71
2021/09/10 09:21:28;;;;;;;;;;;;;;;21.24;43.07;98692.41;4975098;28;20071;-72
2021/09/10 09:23:57;;;;;;;5.60;3.30;;;;;;;21.33;41.11;98685.81;4973990;28;19921;-72
2021/09/10 09:26:29;;;;;;;6.40;3.30;;;;;;;21.37;41.23;98686.72;4975305;28;20034;-71
2021/09/10 09:29:04;;;;;;;8.07;3.10;;;;;;;21.42;41.77;98684.44;4973670;28;20033;-71
2021/09/10 09:31:30;;;;;;;6.55;3.38;;;;;;;21.49;40.52;98681.03;4974213;28;20031;-71
2021/09/10 09:33:56;;;;;;;8.30;3.60;;;;;;;21.53;41.25;98683.88;4974206;28;20485;-71
2021/09/10 09:36:21;;;;;;;9.55;3.45;;;;;;;21.60;40.56;98675.66;4989243;28;20019;-71
2021/09/10 09:38:46;;;;;;;7.38;3.40;;;;;;;21.65;39.52;98680.19;4973980;28;20110;-71
2021/09/10 09:41:17;;;;;;;12.15;3.88;;;;;;;21.68;40.33;98669.09;4971740;28;20554;-72
2021/09/10 09:43:48;;;;;;;6.82;3.28;;;;;;;21.74;40.88;98666.03;4974402;28;20042;-71
2021/09/10 09:46:17;;;;;;;7.88;3.80;;;;;;;21.84;40.81;98669.03;4974629;28;20053;-72
2021/09/10 09:48:44;;;;;;;6.70;3.80;;;;;;;21.93;40.91;98670.81;4963380;28;20034;-71
2021/09/10 09:51:14;;;;;;;8.13;3.55;;;;;;;21.97;39.30;98671.69;4971940;28;20019;-72
2021/09/10 09:53:40;;;;;;;10.35;3.35;;;;;;;22.03;40.69;98672.19;4972121;28;20403;-71
2021/09/10 09:56:09;;;;;;;7.97;3.30;;;;;;;22.08;40.64;98663.53;4974320;28;20023;-72
2021/09/10 09:58:38;;;;;;;11.07;4.38;;;;;;;22.12;40.23;98672.78;4973641;28;20124;-71
2021/09/10 10:01:04;;;;;;;;;;;;;;;22.15;39.38;98670.03;4989121;28;20034;-73
2021/09/10 10:03:29;;;;;;;10.15;4.20;;;;;;;22.17;39.92;98672.50;4973135;28;19948;-71
2021/09/10 10:06:01;;;;;;;9.32;3.78;;;;;;;22.20;40.42;98663.38;4973696;28;20535;-70
2021/09/10 10:08:59;;;;;;;5.45;3.88;;;;;;;22.26;40.05;98656.28;4973008;28;20451;-70
2021/09/10 10:11:30;;;;;;;7.85;3.60;;;;;;;22.33;39.98;98668.78;4972590;28;20034;-71
2021/09/10 10:13:59;;;;;;;9.53;3.80;;;;;;;22.37;40.20;98664.06;4973205;28;20031;-70
2021/09/10 10:16:43;;;;;;;6.38;3.53;;;;;;;22.43;39.78;98671.78;4973605;28;20130;-71
2021/09/10 10:19:20;;;;;;;7.53;3.55;;;;;;;22.49;39.29;98661.13;4973266;28;20110;-71
2021/09/10 10:22:02;;;;;;;7.40;3.47;;;;;;;22.54;39.46;98671.19;4971577;28;20036;-71
2021/09/10 10:24:41;;;;;;;7.07;3.35;;;;;;;22.60;40.20;98669.69;4969677;28;20034;-72
2021/09/10 10:27:35;;;;;;;7.70;4.03;;;;;;;22.65;39.16;98666.59;4971587;28;20107;-72
2021/09/10 10:30:23;;;;;;;4.90;2.92;;;;;;;22.71;38.54;98667.09;4972196;28;20033;-72
2021/09/10 10:32:54;;;;;;;4.70;3.08;;;;;;;22.77;38.83;98673.19;4971198;28;20058;-72
2021/09/10 10:35:30;;;;;;;6.68;3.35;;;;;;;22.82;38.97;98670.88;4972755;28;20041;-71
2021/09/10 10:38:01;;;;;;;6.68;3.67;;;;;;;22.88;38.75;98665.78;4971574;28;20115;-71
2021/09/10 10:40:44;;;;;;;8.98;3.15;;;;;;;22.95;37.07;98665.88;4971821;28;20117;-71
2021/09/10 10:43:22;;;;;;;4.50;2.38;;;;;;;23.01;37.55;98652.41;4970933;28;20412;-70
2021/09/10 10:45:50;;;;;;;6.32;2.80;;;;;;;23.03;35.74;98656.44;4972823;28;20547;-72
2021/09/10 10:48:33;;;;;;;7.18;3.08;;;;;;;23.06;35.99;98654.88;4973107;28;20039;-73
2021/09/10 10:51:01;;;;;;;6.53;2.67;;;;;;;23.10;36.60;98652.94;4972069;28;20097;-71
2021/09/10 10:53:28;;;;;;;4.75;2.65;;;;;;;23.16;36.73;98654.22;4973001;28;20038;-71
2021/09/10 10:55:54;;;;;;;8.27;3.65;;;;;;;23.21;37.13;98655.91;4971728;28;20062;-72
2021/09/10 10:58:27;;;;;;;6.53;3.35;;;;;;;23.31;38.17;98651.69;4972919;28;20035;-71
2021/09/10 11:01:02;;;;;;;11.38;6.18;;;;;;;23.43;38.20;98647.84;4970573;28;20510;-72
2021/09/10 11:03:28;;;;;;;17.08;7.20;;;;;;;23.51;37.54;98643.97;4971359;28;20038;-72
2021/09/10 11:05:57;;;;;;;16.50;7.80;;;;;;;23.60;37.46;98643.69;4970239;28;20089;-71
2021/09/10 11:08:42;;;;;;;6.75;3.78;;;;;;;23.67;37.23;98645.75;4972281;28;20579;-72
2021/09/10 11:11:11;;;;;;;6.47;3.15;;;;;;;23.70;37.11;98643.00;4973228;28;20122;-71
2021/09/10 11:13:41;;;;;;;7.13;2.80;;;;;;;23.75;36.79;98639.88;4986316;28;20098;-72
2021/09/10 11:16:10;;;;;;;7.22;2.90;;;;;;;23.81;37.44;98631.94;4970644;28;20035;-72
2021/09/10 11:18:39;;;;;;;5.30;3.22;;;;;;;23.90;37.26;98640.03;4970812;28;20034;-71
2021/09/10 11:21:06;;;;;;;5.93;3.57;;;;;;;23.99;36.93;98623.00;4970308;28;20098;-72
2021/09/10 11:23:37;;;;;;;9.00;3.65;;;;;;;24.05;37.33;98629.84;4970771;28;20545;-71
2021/09/10 11:26:06;;;;;;;5.10;3.10;;;;;;;24.15;37.19;98625.56;4970425;28;20109;-70